Somerset, New Jersey
Current Conditions -  °F | °C
As of 8:53 PM on Saturday 20 Dec 2014 (Local Time) from KSMQ Reporting Station
Overcast Overcast  
Wind Chill: 32°   Ceiling: 3500
Heat Index: 32°   Visibility: 10mi
Dew Point: 20°   Wind: 3mph
Humidity: 61%   Direction: 340°NNW
Pressure: 30.28"   Gusts: NA
Location:  40.5°N, 74.52°W
Report Text: KSMQ 210153Z AUTO 34003KT 10SM OVC035 00/M07 A3028 RMK AO2 SLP257 T00001067
Loading
Personal Weather Stations






























Interactive Weather Map New forecast layout! Learn more

10-Day Weather Forecast

Advertisements
Track Severe Weather on mobile